Terminal Aerodrome Forecast
Issued by NWS Corpus Christi, TX

Home | Current Version | Previous Version | Text Only | Print | Product List | Glossary On
Versions: 1 2 3 4 5 6 7 8 9 10 11 12 13 14 15
000
FTUS44 KCRP 030500
TAFCRP
TAF
KCRP 030520Z 0306/0406 12010KT P6SM VCSH SCT018 BKN150
      TEMPO 0306/0308 15022G33KT 5SM -SHRA BR BKN025
     FM030800 13007KT P6SM VCSH BKN020 OVC150
     FM031600 13015G20KT P6SM VCTS OVC030CB
      TEMPO 0316/0320 VRB20G30KT 1SM TSRA OVC025CB
     FM040200 14008KT P6SM SCT018 BKN200=

USA.gov is the U.S. government's official web portal to all federal, state and local government web resources and services.